| time (UTC) | temp C | wind direction | speed KPH | gust KPH | rain 1hr cm | rain 24hr cm | rain mn cm | humidity % | barometer mb |
| 20260503033051 | 13 | 256 | 4.8 | 9.7 | 0.00 | 0.00 | 0.00 | 47 | 1017.2 |
| 20260503031550 | 13 | 321 | 1.6 | 1.6 | 0.00 | 0.00 | 0.00 | 44 | 1016.7 |
| 20260503030049 | 13 | 0 | 0.0 | 1.6 | 0.00 | 0.00 | 0.00 | 46 | 1016.5 |
| 20260503024552 | 13 | 0 | 0.0 | 0.0 | 0.00 | 0.00 | 0.00 | 46 | 1016.3 |
| 20260503023057 | 13 | 0 | 0.0 | 1.6 | 0.00 | 0.00 | 0.00 | 45 | 1016.3 |
| 20260503021553 | 15 | 0 | 0.0 | 3.2 | 0.00 | 0.00 | 0.00 | 43 | 1016.2 |
| 20260503020056 | 16 | 0 | 0.0 | 1.6 | 0.00 | 0.00 | 0.00 | 40 | 1016.2 |
| 20260503014602 | 17 | 0 | 0.0 | 1.6 | 0.00 | 0.00 | 0.00 | 38 | 1016.2 |
| 20260503013053 | 18 | 0 | 0.0 | 3.2 | 0.00 | 0.00 | 0.00 | 36 | 1016.3 |
| 20260503011555 | 18 | 243 | 1.6 | 6.4 | 0.00 | 0.00 | 0.00 | 33 | 1016.3 |
| 20260503010056 | 19 | 183 | 0.0 | 3.2 | 0.00 | 0.00 | 0.00 | 33 | 1016.5 |
| 20260503004559 | 18 | 246 | 3.2 | 4.8 | 0.00 | 0.00 | 0.00 | 34 | 1016.6 |
| 20260503003055 | 18 | 204 | 0.0 | 6.4 | 0.00 | 0.00 | 0.00 | 36 | 1016.7 |
| 20260503001618 | 18 | 174 | 1.6 | 3.2 | 0.00 | 0.00 | 0.00 | 36 | 1016.8 |
| 20260503000134 | 18 | 143 | 0.0 | 4.8 | 0.00 | 0.00 | 0.00 | 36 | 1017.0 |
| 20260502234557 | 18 | 0 | 1.6 | 8.0 | 0.00 | 0.00 | 0.00 | 35 | 1017.1 |
| 20260502233051 | 18 | 134 | 1.6 | 12.9 | 0.00 | 0.00 | 0.00 | 35 | 1017.1 |
| 20260502231559 | 18 | 0 | 0.0 | 9.7 | 0.00 | 0.00 | 0.00 | 34 | 1017.4 |
| 20260502230048 | 19 | 198 | 1.6 | 6.4 | 0.00 | 0.00 | 0.00 | 34 | 1017.6 |
| 20260502224549 | 18 | 281 | 3.2 | 11.3 | 0.00 | 0.00 | 0.00 | 34 | 1017.8 |
| 20260502223050 | 19 | 312 | 3.2 | 8.0 | 0.00 | 0.00 | 0.00 | 34 | 1017.9 |
| 20260502221554 | 19 | 54 | 3.2 | 8.0 | 0.00 | 0.00 | 0.00 | 35 | 1018.2 |
| 20260502220050 | 19 | 283 | 3.2 | 8.0 | 0.00 | 0.00 | 0.00 | 35 | 1018.5 |
| 20260502214557 | 17 | 292 | 1.6 | 8.0 | 0.00 | 0.00 | 0.00 | 39 | 1018.6 |
| 20260502213054 | 17 | 283 | 3.2 | 11.3 | 0.00 | 0.00 | 0.00 | 38 | 1018.9 |
| 20260502211553 | 18 | 75 | 1.6 | 6.4 | 0.00 | 0.00 | 0.00 | 37 | 1019.1 |
| 20260502210107 | 18 | 200 | 3.2 | 11.3 | 0.00 | 0.00 | 0.00 | 37 | 1019.2 |
| 20260502204556 | 18 | 127 | 0.0 | 6.4 | 0.00 | 0.00 | 0.00 | 38 | 1019.3 |
| 20260502203051 | 17 | 285 | 4.8 | 14.5 | 0.00 | 0.00 | 0.00 | 39 | 1019.6 |
| 20260502201551 | 18 | 0 | 1.6 | 11.3 | 0.00 | 0.00 | 0.00 | 39 | 1019.6 |
| 20260502200052 | 17 | 65 | 1.6 | 8.0 | 0.00 | 0.00 | 0.00 | 42 | 1019.9 |
| 20260502194556 | 17 | 44 | 3.2 | 9.7 | 0.00 | 0.00 | 0.00 | 43 | 1020.1 |
| 20260502193050 | 16 | 95 | 4.8 | 9.7 | 0.00 | 0.00 | 0.00 | 44 | 1020.3 |
| 20260502191553 | 16 | 55 | 1.6 | 8.0 | 0.00 | 0.00 | 0.00 | 43 | 1020.4 |
| 20260502190054 | 16 | 8 | 3.2 | 6.4 | 0.00 | 0.00 | 0.00 | 44 | 1020.6 |
| 20260502184558 | 15 | 0 | 1.6 | 8.0 | 0.00 | 0.00 | 0.00 | 46 | 1020.5 |
| 20260502183047 | 15 | 29 | 3.2 | 6.4 | 0.00 | 0.00 | 0.00 | 44 | 1020.7 |
| 20260502181553 | 16 | 114 | 0.0 | 3.2 | 0.00 | 0.00 | 0.00 | 43 | 1020.6 |
| 20260502163054 | 17 | 84 | 3.2 | 11.3 | 0.00 | 0.00 | 0.00 | 40 | 1020.7 |
| 20260502161546 | 17 | 58 | 3.2 | 9.7 | 0.00 | 0.00 | 0.00 | 40 | 1020.7 |
| 20260502151621 | 15 | 44 | 3.2 | 8.0 | 0.00 | 0.00 | 0.00 | 46 | 1020.6 |
| 20260502123104 | 7 | 349 | 4.8 | 11.3 | 0.00 | 0.00 | 0.00 | 60 | 1019.3 |
| 20260502121550 | 7 | 357 | 1.6 | 8.0 | 0.00 | 0.00 | 0.00 | 60 | 1019.2 |
| 20260502114556 | 8 | 27 | 1.6 | 11.3 | 0.00 | 0.00 | 0.00 | 57 | 1018.8 |
| 20260502113054 | 8 | 347 | 6.4 | 14.5 | 0.00 | 0.00 | 0.00 | 56 | 1018.7 |
| 20260502111559 | 8 | 285 | 3.2 | 11.3 | 0.00 | 0.00 | 0.00 | 55 | 1018.3 |
| 20260502110055 | 8 | 41 | 1.6 | 9.7 | 0.00 | 0.00 | 0.00 | 54 | 1018.1 |
| 20260502104551 | 8 | 69 | 4.8 | 14.5 | 0.00 | 0.00 | 0.00 | 54 | 1017.9 |
| 20260502103101 | 8 | 22 | 3.2 | 8.0 | 0.00 | 0.00 | 0.00 | 51 | 1017.5 |
| 20260502101600 | 8 | 352 | 3.2 | 9.7 | 0.00 | 0.00 | 0.00 | 49 | 1017.3 |
| 20260502100123 | 9 | 316 | 1.6 | 6.4 | 0.00 | 0.00 | 0.00 | 47 | 1017.2 |
| 20260502070055 | 8 | 291 | 3.2 | 8.0 | 0.00 | 0.00 | 0.00 | 44 | 1016.0 |
| 20260502064606 | 9 | 323 | 3.2 | 8.0 | 0.00 | 0.00 | 0.00 | 42 | 1016.0 |
| 20260502063059 | 10 | 307 | 4.8 | 12.9 | 0.00 | 0.00 | 0.00 | 41 | 1016.0 |
| 20260502061610 | 10 | 293 | 8.0 | 11.3 | 0.00 | 0.00 | 0.00 | 39 | 1016.0 |
| 20260502060053 | 10 | 320 | 1.6 | 6.4 | 0.00 | 0.00 | 0.00 | 39 | 1015.9 |
| 20260502054548 | 10 | 298 | 6.4 | 9.7 | 0.00 | 0.00 | 0.00 | 39 | 1015.9 |
| 20260502053102 | 10 | 293 | 6.4 | 11.3 | 0.00 | 0.00 | 0.00 | 36 | 1015.9 |
| 20260502051554 | 11 | 298 | 4.8 | 11.3 | 0.00 | 0.00 | 0.00 | 34 | 1015.9 |
| 20260502050057 | 11 | 286 | 6.4 | 9.7 | 0.00 | 0.00 | 0.00 | 33 | 1015.9 |
| 20260502044556 | 11 | 304 | 4.8 | 9.7 | 0.00 | 0.00 | 0.00 | 33 | 1015.9 |
| 20260502043103 | 12 | 323 | 4.8 | 12.9 | 0.00 | 0.00 | 0.00 | 32 | 1015.8 |
| 20260502041613 | 11 | 302 | 3.2 | 6.4 | 0.00 | 0.00 | 0.00 | 32 | 1015.8 |
| 20260502040057 | 11 | 293 | 4.8 | 6.4 | 0.00 | 0.00 | 0.00 | 30 | 1015.9 |
| 20260502034553 | 12 | 297 | 1.6 | 6.4 | 0.00 | 0.00 | 0.00 | 28 | 1015.7 |